createdAt,value
2023-05-08T00:01:56.137Z,11.09
2023-05-08T00:04:24.603Z,11.08
2023-05-08T00:06:53.220Z,11.06
2023-05-08T00:09:21.629Z,11.06
2023-05-08T00:11:49.984Z,11.06
2023-05-08T00:14:18.649Z,11.07
2023-05-08T00:16:47.022Z,11.05
2023-05-08T00:19:15.452Z,11.04
2023-05-08T00:21:43.699Z,11.03
2023-05-08T00:24:11.989Z,11.04
2023-05-08T00:26:42.072Z,11.05
2023-05-08T00:29:11.487Z,11.05
2023-05-08T00:31:39.846Z,11.04
2023-05-08T00:34:08.337Z,11.03
2023-05-08T00:36:36.649Z,10.99
2023-05-08T00:39:05.119Z,10.96
2023-05-08T00:41:33.456Z,10.92
2023-05-08T00:44:02.370Z,10.86
2023-05-08T00:46:31.299Z,10.81
2023-05-08T00:49:00.456Z,10.76
2023-05-08T00:51:29.474Z,10.75
2023-05-08T00:53:59.622Z,10.75
2023-05-08T00:56:29.957Z,10.74
2023-05-08T00:58:59.045Z,10.74
2023-05-08T01:01:27.703Z,10.74
2023-05-08T01:03:56.267Z,10.75
2023-05-08T01:06:24.789Z,10.74
2023-05-08T01:08:53.194Z,10.74
2023-05-08T01:11:31.456Z,10.73
2023-05-08T01:14:23.217Z,10.74
2023-05-08T01:17:36.576Z,10.73
2023-05-08T01:20:23.626Z,10.71
2023-05-08T01:23:08.851Z,10.70
2023-05-08T01:25:44.191Z,10.67
2023-05-08T01:28:12.813Z,10.67
2023-05-08T01:30:54.253Z,10.67
2023-05-08T01:34:10.666Z,10.68
2023-05-08T01:36:52.034Z,10.68
2023-05-08T01:39:33.546Z,10.68
2023-05-08T01:42:34.478Z,10.70
2023-05-08T01:45:11.024Z,10.68
2023-05-08T01:47:40.125Z,10.67
2023-05-08T01:50:25.920Z,10.67
2023-05-08T01:53:00.706Z,10.68
2023-05-08T01:55:36.474Z,10.71
2023-05-08T01:58:09.094Z,10.69
2023-05-08T02:00:40.976Z,10.69
2023-05-08T02:03:11.182Z,10.70
2023-05-08T02:05:42.274Z,10.70
2023-05-08T02:08:14.270Z,10.71
2023-05-08T02:10:43.639Z,10.71
2023-05-08T02:13:19.313Z,10.71
2023-05-08T02:15:49.780Z,10.68
2023-05-08T02:18:22.345Z,10.66
2023-05-08T02:20:52.582Z,10.65
2023-05-08T02:23:23.607Z,10.63
2023-05-08T02:25:53.372Z,10.62
2023-05-08T02:28:24.126Z,10.63
2023-05-08T02:30:52.896Z,10.60
2023-05-08T02:33:22.165Z,10.59
2023-05-08T02:35:52.011Z,10.58
2023-05-08T02:38:21.927Z,10.60
2023-05-08T02:40:55.852Z,10.60
2023-05-08T02:43:24.582Z,10.58
2023-05-08T02:45:57.448Z,10.55
2023-05-08T02:48:59.120Z,10.54
2023-05-08T02:51:55.783Z,10.51
2023-05-08T02:54:44.538Z,10.51
2023-05-08T02:57:19.457Z,10.50
2023-05-08T02:59:57.723Z,10.49
2023-05-08T03:02:35.908Z,10.48
2023-05-08T03:05:14.648Z,10.45
2023-05-08T03:07:45.464Z,10.41
2023-05-08T03:10:16.886Z,10.40
2023-05-08T03:12:52.293Z,10.39
2023-05-08T03:15:24.170Z,10.40
2023-05-08T03:17:59.160Z,10.37
2023-05-08T03:20:33.796Z,10.36
2023-05-08T03:23:03.465Z,10.35
2023-05-08T03:25:34.554Z,10.35
2023-05-08T03:28:05.349Z,10.33
2023-05-08T03:30:36.744Z,10.35
2023-05-08T03:33:10.036Z,10.33
2023-05-08T03:35:40.043Z,10.33
2023-05-08T03:38:09.902Z,10.32
2023-05-08T03:40:42.840Z,10.31
2023-05-08T03:43:12.267Z,10.30
2023-05-08T03:45:41.346Z,10.31
2023-05-08T03:48:11.088Z,10.31
2023-05-08T03:50:39.499Z,10.32
2023-05-08T03:53:10.665Z,10.33
2023-05-08T03:55:39.549Z,10.34
2023-05-08T03:58:21.750Z,10.36
2023-05-08T04:01:06.491Z,10.39
2023-05-08T04:04:01.303Z,10.42
2023-05-08T04:06:57.139Z,10.44
2023-05-08T04:10:01.062Z,10.46
2023-05-08T04:12:47.275Z,10.48
2023-05-08T04:15:38.557Z,10.49
2023-05-08T04:18:10.894Z,10.50
2023-05-08T04:20:41.797Z,10.51
2023-05-08T04:23:14.439Z,10.51
2023-05-08T04:25:43.960Z,10.48
2023-05-08T04:28:12.698Z,10.47
2023-05-08T04:30:41.598Z,10.41
2023-05-08T04:33:11.416Z,10.41
2023-05-08T04:35:39.774Z,10.42
2023-05-08T04:38:08.378Z,10.44
2023-05-08T04:40:36.905Z,10.47
2023-05-08T04:43:06.140Z,10.50
2023-05-08T04:45:34.540Z,10.52
2023-05-08T04:48:02.931Z,10.54
2023-05-08T04:50:32.221Z,10.52
2023-05-08T04:53:00.775Z,10.51
2023-05-08T04:55:29.342Z,10.52
2023-05-08T04:57:57.717Z,10.55
2023-05-08T05:00:26.233Z,10.56
2023-05-08T05:02:54.847Z,10.58
2023-05-08T05:05:23.407Z,10.60
2023-05-08T05:07:51.749Z,10.64
2023-05-08T05:10:41.147Z,10.66
2023-05-08T05:13:09.706Z,10.66
2023-05-08T05:15:38.178Z,10.67
2023-05-08T05:18:06.650Z,10.69
2023-05-08T05:20:35.083Z,10.67
2023-05-08T05:23:04.035Z,10.65
2023-05-08T05:25:32.464Z,10.62
2023-05-08T05:28:01.660Z,10.64
2023-05-08T05:30:30.604Z,10.67
2023-05-08T05:32:59.440Z,10.70
2023-05-08T05:35:27.969Z,10.76
2023-05-08T05:37:56.780Z,10.80
2023-05-08T05:40:25.912Z,10.86
2023-05-08T05:42:54.499Z,10.94
2023-05-08T05:45:22.943Z,11.01
2023-05-08T05:47:54.410Z,11.09
2023-05-08T05:50:23.651Z,11.14
2023-05-08T05:52:52.088Z,11.20
2023-05-08T05:55:22.240Z,11.27
2023-05-08T05:57:50.892Z,11.34
2023-05-08T06:00:21.537Z,11.38
2023-05-08T06:02:52.069Z,11.42
2023-05-08T06:05:21.124Z,11.46
2023-05-08T06:07:49.800Z,11.48
2023-05-08T06:10:18.244Z,11.51
2023-05-08T06:12:46.627Z,11.55
2023-05-08T06:15:15.415Z,11.60
2023-05-08T06:17:44.906Z,11.66
2023-05-08T06:20:14.163Z,11.74
2023-05-08T06:22:42.601Z,11.82
2023-05-08T06:25:11.373Z,11.87
2023-05-08T06:28:00.069Z,11.91
2023-05-08T06:30:28.539Z,11.97
2023-05-08T06:32:56.947Z,12.03
2023-05-08T06:35:25.495Z,12.06
2023-05-08T06:37:53.825Z,12.11
2023-05-08T06:40:23.728Z,12.13
2023-05-08T06:42:52.122Z,12.16
2023-05-08T06:45:20.561Z,12.18
2023-05-08T06:47:48.879Z,12.21
2023-05-08T06:50:17.260Z,12.27
2023-05-08T06:52:45.644Z,12.33
2023-05-08T06:55:14.433Z,12.38
2023-05-08T06:57:43.070Z,12.40
2023-05-08T07:00:12.163Z,12.43
2023-05-08T07:02:40.480Z,12.44
2023-05-08T07:05:09.504Z,12.46
2023-05-08T07:07:38.012Z,12.49
2023-05-08T07:10:07.932Z,12.48
2023-05-08T07:12:54.613Z,12.49
2023-05-08T07:15:26.606Z,12.48
2023-05-08T07:17:56.078Z,12.52
2023-05-08T07:20:25.116Z,12.55
2023-05-08T07:22:53.422Z,12.56
2023-05-08T07:25:21.889Z,12.56
2023-05-08T07:27:50.247Z,12.61
2023-05-08T07:30:18.581Z,12.61
2023-05-08T07:32:47.034Z,12.63
2023-05-08T07:35:15.902Z,12.71
2023-05-08T07:37:44.671Z,12.79
2023-05-08T07:40:13.112Z,12.80
2023-05-08T07:42:45.450Z,12.86
2023-05-08T07:45:14.511Z,12.91
2023-05-08T07:47:51.610Z,12.95
2023-05-08T07:50:36.629Z,12.94
2023-05-08T07:53:05.029Z,12.96
2023-05-08T07:55:33.338Z,12.99
2023-05-08T07:58:01.724Z,13.02
2023-05-08T08:00:30.099Z,13.06
2023-05-08T08:02:58.636Z,13.08
2023-05-08T08:05:27.192Z,13.08
2023-05-08T08:07:55.515Z,13.07
2023-05-08T08:10:23.995Z,13.06
2023-05-08T08:12:52.328Z,13.07
2023-05-08T08:15:20.898Z,13.06
2023-05-08T08:17:49.304Z,13.01
2023-05-08T08:20:17.581Z,13.01
2023-05-08T08:22:46.147Z,13.00
2023-05-08T08:25:14.880Z,12.98
2023-05-08T08:27:43.418Z,12.97
2023-05-08T08:30:16.751Z,12.86
2023-05-08T08:32:46.873Z,12.76
2023-05-08T08:35:16.035Z,12.69
2023-05-08T08:37:45.368Z,12.63
2023-05-08T08:40:13.876Z,12.55
2023-05-08T08:42:42.302Z,12.46
2023-05-08T08:45:11.540Z,12.35
2023-05-08T08:47:44.425Z,12.28
2023-05-08T08:50:15.803Z,12.20
2023-05-08T08:53:21.717Z,12.15
2023-05-08T08:55:53.866Z,12.07
2023-05-08T08:58:33.282Z,12.04
2023-05-08T09:01:04.108Z,12.01
2023-05-08T09:03:32.901Z,12.01
2023-05-08T09:06:01.682Z,12.02
2023-05-08T09:08:30.215Z,12.02
2023-05-08T09:10:58.799Z,12.00
2023-05-08T09:13:27.226Z,12.00
2023-05-08T09:15:57.893Z,12.02
2023-05-08T09:18:26.547Z,12.04
2023-05-08T09:20:55.313Z,12.06
2023-05-08T09:23:23.631Z,12.07
2023-05-08T09:25:52.041Z,12.09
2023-05-08T09:28:20.577Z,12.12
2023-05-08T09:30:59.370Z,12.16
2023-05-08T09:33:29.641Z,12.20
2023-05-08T09:35:58.385Z,12.21
2023-05-08T09:38:42.458Z,12.24
2023-05-08T09:41:13.500Z,12.25
2023-05-08T09:43:43.527Z,12.26
2023-05-08T09:46:25.154Z,12.27
2023-05-08T09:48:58.805Z,12.20
2023-05-08T09:51:29.826Z,12.19
2023-05-08T09:54:00.582Z,12.16
2023-05-08T09:56:33.688Z,12.15
2023-05-08T09:59:22.064Z,12.12
2023-05-08T10:01:51.095Z,12.15
2023-05-08T10:04:32.303Z,12.18
2023-05-08T10:07:01.136Z,12.14
2023-05-08T10:09:42.424Z,12.11
2023-05-08T10:12:15.771Z,12.12
2023-05-08T10:14:46.525Z,12.17
2023-05-08T10:17:21.820Z,12.20
2023-05-08T10:19:55.822Z,12.25
2023-05-08T10:22:25.679Z,12.33
2023-05-08T10:24:58.783Z,12.39
2023-05-08T10:27:55.698Z,12.43
2023-05-08T10:30:27.755Z,12.54
2023-05-08T10:32:59.398Z,12.67
2023-05-08T10:35:28.172Z,12.78
2023-05-08T10:37:57.324Z,12.88
2023-05-08T10:40:25.928Z,12.97
2023-05-08T10:42:54.514Z,12.98
2023-05-08T10:45:24.391Z,12.98
2023-05-08T10:48:13.993Z,13.02
2023-05-08T10:51:08.401Z,13.05
2023-05-08T10:54:24.898Z,13.06
2023-05-08T10:57:08.610Z,13.09
2023-05-08T10:59:40.199Z,13.12
2023-05-08T11:02:08.879Z,13.15
2023-05-08T11:04:38.461Z,13.15
2023-05-08T11:07:07.135Z,13.16
2023-05-08T11:10:06.661Z,13.12
2023-05-08T11:12:38.117Z,13.11
2023-05-08T11:15:07.567Z,13.09
2023-05-08T11:17:36.003Z,13.14
2023-05-08T11:20:07.083Z,13.17
2023-05-08T11:22:37.042Z,13.15
2023-05-08T11:25:11.068Z,13.08
2023-05-08T11:28:00.929Z,12.98
2023-05-08T11:30:37.310Z,12.81
2023-05-08T11:33:05.894Z,12.72
2023-05-08T11:35:48.286Z,12.64
2023-05-08T11:38:28.431Z,12.54
2023-05-08T11:41:01.109Z,12.46
2023-05-08T11:43:41.692Z,12.40
2023-05-08T11:46:15.900Z,12.33
2023-05-08T11:48:44.525Z,12.25
2023-05-08T11:51:13.852Z,12.16
2023-05-08T11:53:44.211Z,12.08
2023-05-08T11:56:12.776Z,12.05
2023-05-08T11:58:41.219Z,12.03
2023-05-08T12:01:09.579Z,12.01
2023-05-08T12:03:38.294Z,12.01
2023-05-08T12:06:07.186Z,12.02
2023-05-08T12:08:39.538Z,12.03
2023-05-08T12:11:08.130Z,12.07
2023-05-08T12:13:36.532Z,12.09
2023-05-08T12:16:05.091Z,12.10
2023-05-08T12:18:33.508Z,12.16
2023-05-08T12:21:01.990Z,12.20
2023-05-08T12:23:30.492Z,12.23
2023-05-08T12:26:00.555Z,12.30
2023-05-08T12:28:32.527Z,12.39
2023-05-08T12:31:04.565Z,12.46
2023-05-08T12:33:34.278Z,12.54
2023-05-08T12:36:03.117Z,12.58
2023-05-08T12:38:31.539Z,12.59
2023-05-08T12:41:04.519Z,12.63
2023-05-08T12:43:37.360Z,12.65
2023-05-08T12:46:06.011Z,12.68
2023-05-08T12:48:34.431Z,12.74
2023-05-08T12:51:05.446Z,12.80
2023-05-08T12:53:33.826Z,12.85
2023-05-08T12:56:04.358Z,12.91
2023-05-08T12:58:35.083Z,13.02
2023-05-08T13:01:10.323Z,13.11
2023-05-08T13:03:39.708Z,13.19
2023-05-08T13:06:20.131Z,13.22
2023-05-08T13:08:54.334Z,13.26
2023-05-08T13:11:33.526Z,13.30
2023-05-08T13:14:02.081Z,13.35
2023-05-08T13:16:30.520Z,13.35
2023-05-08T13:18:58.988Z,13.34
2023-05-08T13:21:28.071Z,13.34
2023-05-08T13:23:57.038Z,13.35
2023-05-08T13:26:26.445Z,13.36
2023-05-08T13:28:56.486Z,13.34
2023-05-08T13:31:25.168Z,13.27
2023-05-08T13:33:53.540Z,13.15
2023-05-08T13:36:22.206Z,13.08
2023-05-08T13:38:54.387Z,13.05
2023-05-08T13:41:23.321Z,13.05
2023-05-08T13:43:51.681Z,13.06
2023-05-08T13:46:21.115Z,13.08
2023-05-08T13:48:49.513Z,13.05
2023-05-08T13:51:17.813Z,13.03
2023-05-08T13:53:46.157Z,13.08
2023-05-08T13:56:14.661Z,13.13
2023-05-08T13:58:43.685Z,13.21
2023-05-08T14:01:25.813Z,13.30
2023-05-08T14:03:55.805Z,13.37
2023-05-08T14:06:24.358Z,13.42
2023-05-08T14:08:54.588Z,13.42
2023-05-08T14:11:25.668Z,13.37
2023-05-08T14:13:54.099Z,13.36
2023-05-08T14:16:22.545Z,13.35
2023-05-08T14:18:50.930Z,13.33
2023-05-08T14:21:19.327Z,13.32
2023-05-08T14:23:47.745Z,13.30
2023-05-08T14:26:16.157Z,13.31
2023-05-08T14:28:44.504Z,13.27
2023-05-08T14:31:13.000Z,13.28
2023-05-08T14:33:41.437Z,13.25
2023-05-08T14:36:10.094Z,13.18
2023-05-08T14:38:38.456Z,13.13
2023-05-08T14:41:06.784Z,13.10
2023-05-08T14:43:35.170Z,13.07
2023-05-08T14:46:03.731Z,13.07
2023-05-08T14:48:32.060Z,13.06
2023-05-08T14:51:00.455Z,13.04
2023-05-08T14:53:28.954Z,13.03
2023-05-08T14:55:59.946Z,13.04
2023-05-08T14:58:28.769Z,13.02
2023-05-08T15:00:57.135Z,13.01
2023-05-08T15:03:26.078Z,12.99
2023-05-08T15:05:54.688Z,12.96
2023-05-08T15:08:23.084Z,12.95
2023-05-08T15:10:52.227Z,12.96
2023-05-08T15:13:20.648Z,12.96
2023-05-08T15:15:49.463Z,13.02
2023-05-08T15:18:17.778Z,13.06
2023-05-08T15:20:46.164Z,13.08
2023-05-08T15:23:14.614Z,13.08
2023-05-08T15:25:42.930Z,12.99
2023-05-08T15:28:14.205Z,12.88
2023-05-08T15:30:45.937Z,12.75
2023-05-08T15:33:14.714Z,12.73
2023-05-08T15:35:43.006Z,12.70
2023-05-08T15:38:11.764Z,12.66
2023-05-08T15:40:40.121Z,12.58
2023-05-08T15:43:08.424Z,12.47
2023-05-08T15:45:36.780Z,12.40
2023-05-08T15:48:05.365Z,12.36
2023-05-08T15:50:33.636Z,12.33
2023-05-08T15:53:02.294Z,12.27
2023-05-08T15:55:30.696Z,12.23
2023-05-08T15:57:59.100Z,12.17
2023-05-08T16:00:33.437Z,12.13
2023-05-08T16:03:12.327Z,12.04
2023-05-08T16:05:40.823Z,12.02
2023-05-08T16:08:12.688Z,11.92
2023-05-08T16:10:42.532Z,11.93
2023-05-08T16:13:11.139Z,11.85
2023-05-08T16:15:39.693Z,11.81
2023-05-08T16:18:08.648Z,11.77
2023-05-08T16:20:37.180Z,11.73
2023-05-08T16:23:05.674Z,11.69
2023-05-08T16:25:34.065Z,11.64
2023-05-08T16:28:02.770Z,11.56
2023-05-08T16:30:31.520Z,11.51
2023-05-08T16:33:00.124Z,11.48
2023-05-08T16:35:29.683Z,11.48
2023-05-08T16:37:58.235Z,11.48
2023-05-08T16:40:26.928Z,11.46
2023-05-08T16:42:56.209Z,11.40
2023-05-08T16:45:24.839Z,11.33
2023-05-08T16:47:53.214Z,11.28
2023-05-08T16:50:21.591Z,11.22
2023-05-08T16:52:49.864Z,11.14
2023-05-08T16:55:18.289Z,11.09
2023-05-08T16:57:46.657Z,11.05
2023-05-08T17:00:15.456Z,10.98
2023-05-08T17:02:44.160Z,10.92
2023-05-08T17:05:12.895Z,10.87
2023-05-08T17:07:41.655Z,10.83
2023-05-08T17:10:10.703Z,10.77
2023-05-08T17:12:39.156Z,10.68
2023-05-08T17:15:07.972Z,10.61
2023-05-08T17:17:36.395Z,10.55
2023-05-08T17:20:05.373Z,10.48
2023-05-08T17:22:33.834Z,10.40
2023-05-08T17:25:02.609Z,10.34
2023-05-08T17:27:31.013Z,10.26
2023-05-08T17:29:59.454Z,10.17
2023-05-08T17:32:27.905Z,10.11
2023-05-08T17:34:56.267Z,10.03
2023-05-08T17:37:24.709Z,9.93
2023-05-08T17:39:52.981Z,9.86
2023-05-08T17:42:21.296Z,9.77
2023-05-08T17:44:49.576Z,9.70
2023-05-08T17:47:17.914Z,9.63
2023-05-08T17:49:46.285Z,9.57
2023-05-08T17:52:14.658Z,9.52
2023-05-08T17:54:43.020Z,9.44
2023-05-08T17:57:11.330Z,9.40
2023-05-08T17:59:39.687Z,9.35
2023-05-08T18:02:08.209Z,9.28
2023-05-08T18:04:36.974Z,9.22
2023-05-08T18:07:05.401Z,9.15
2023-05-08T18:09:33.734Z,9.10
2023-05-08T18:12:02.748Z,9.05
2023-05-08T18:14:32.049Z,8.97
2023-05-08T18:17:00.971Z,8.92
2023-05-08T18:19:29.286Z,8.87
2023-05-08T18:21:57.666Z,8.84
2023-05-08T18:24:26.100Z,8.79
2023-05-08T18:26:54.480Z,8.75
2023-05-08T18:29:22.907Z,8.70
2023-05-08T18:31:51.478Z,8.66
2023-05-08T18:34:19.824Z,8.60
2023-05-08T18:36:48.180Z,8.57
2023-05-08T18:39:16.621Z,8.56
2023-05-08T18:41:44.960Z,8.52
2023-05-08T18:44:13.260Z,8.50
2023-05-08T18:46:41.636Z,8.45
2023-05-08T18:49:09.984Z,8.41
2023-05-08T18:51:38.355Z,8.37
2023-05-08T18:54:06.714Z,8.31
2023-05-08T18:56:35.047Z,8.27
2023-05-08T18:59:03.871Z,8.22
2023-05-08T19:01:32.346Z,8.18
2023-05-08T19:04:00.798Z,8.13
2023-05-08T19:06:29.152Z,8.05
2023-05-08T19:08:57.524Z,7.98
2023-05-08T19:11:26.250Z,7.93
2023-05-08T19:13:56.448Z,7.92
2023-05-08T19:16:24.936Z,7.89
2023-05-08T19:18:53.492Z,7.86
2023-05-08T19:21:21.931Z,7.84
2023-05-08T19:23:50.251Z,7.80
2023-05-08T19:26:18.920Z,7.80
2023-05-08T19:28:47.266Z,7.76
2023-05-08T19:31:15.789Z,7.72
2023-05-08T19:33:44.242Z,7.70
2023-05-08T19:36:12.813Z,7.65
2023-05-08T19:38:41.397Z,7.59
2023-05-08T19:41:11.767Z,7.55
2023-05-08T19:43:40.081Z,7.52
2023-05-08T19:46:08.455Z,7.50
2023-05-08T19:48:36.882Z,7.45
2023-05-08T19:51:06.599Z,7.40
2023-05-08T19:53:35.031Z,7.38
2023-05-08T19:56:03.380Z,7.35
2023-05-08T19:58:31.939Z,7.32
2023-05-08T20:01:00.353Z,7.29
2023-05-08T20:03:28.997Z,7.27
2023-05-08T20:05:57.588Z,7.26
2023-05-08T20:08:25.930Z,7.24
2023-05-08T20:10:54.278Z,7.22
2023-05-08T20:13:22.730Z,7.20
2023-05-08T20:15:51.163Z,7.17
2023-05-08T20:18:19.498Z,7.14
2023-05-08T20:20:47.863Z,7.07
2023-05-08T20:23:16.261Z,7.00
2023-05-08T20:25:46.567Z,6.97
2023-05-08T20:28:15.967Z,6.95
2023-05-08T20:30:44.387Z,6.94
2023-05-08T20:33:12.801Z,6.91
2023-05-08T20:35:41.218Z,6.91
2023-05-08T20:38:09.621Z,6.89
2023-05-08T20:40:38.082Z,6.87
2023-05-08T20:43:06.427Z,6.84
2023-05-08T20:45:34.771Z,6.77
2023-05-08T20:48:03.502Z,6.71
2023-05-08T20:50:32.063Z,6.64
2023-05-08T20:53:00.588Z,6.59
2023-05-08T20:55:28.915Z,6.53
2023-05-08T20:57:59.433Z,6.48
2023-05-08T21:00:27.842Z,6.41
2023-05-08T21:02:56.288Z,6.39
2023-05-08T21:05:24.717Z,6.37
2023-05-08T21:07:58.609Z,6.34
2023-05-08T21:10:29.224Z,6.32
2023-05-08T21:12:57.645Z,6.29
2023-05-08T21:15:26.000Z,6.26
2023-05-08T21:17:54.589Z,6.23
2023-05-08T21:20:23.512Z,6.20
2023-05-08T21:22:51.877Z,6.17
2023-05-08T21:25:21.396Z,6.15
2023-05-08T21:27:49.931Z,6.15
2023-05-08T21:30:18.357Z,6.15
2023-05-08T21:32:46.820Z,6.14
2023-05-08T21:35:15.762Z,6.14
2023-05-08T21:37:44.444Z,6.14
2023-05-08T21:40:12.875Z,6.13
2023-05-08T21:42:41.380Z,6.13
2023-05-08T21:45:10.265Z,6.14
2023-05-08T21:47:38.590Z,6.13
2023-05-08T21:50:07.690Z,6.12
2023-05-08T21:52:36.133Z,6.14
2023-05-08T21:55:08.706Z,6.14
2023-05-08T21:57:37.407Z,6.14
2023-05-08T22:00:08.094Z,6.15
2023-05-08T22:02:36.472Z,6.16
2023-05-08T22:05:05.220Z,6.17
2023-05-08T22:07:33.766Z,6.19
2023-05-08T22:10:02.144Z,6.20
2023-05-08T22:12:30.483Z,6.22
2023-05-08T22:14:58.845Z,6.26
2023-05-08T22:17:27.275Z,6.31
2023-05-08T22:19:55.673Z,6.33
2023-05-08T22:22:24.035Z,6.33
2023-05-08T22:24:52.414Z,6.33
2023-05-08T22:27:20.809Z,6.32
2023-05-08T22:29:49.124Z,6.31
2023-05-08T22:32:18.187Z,6.31
2023-05-08T22:34:50.002Z,6.31
2023-05-08T22:37:18.524Z,6.32
2023-05-08T22:39:46.792Z,6.27
2023-05-08T22:42:16.131Z,6.26
2023-05-08T22:44:45.496Z,6.27
2023-05-08T22:47:14.293Z,6.25
2023-05-08T22:49:42.668Z,6.23
2023-05-08T22:52:11.043Z,6.23
2023-05-08T22:54:39.548Z,6.22
2023-05-08T22:57:08.842Z,6.22
2023-05-08T22:59:37.385Z,6.21
2023-05-08T23:02:05.768Z,6.20
2023-05-08T23:04:34.132Z,6.20
2023-05-08T23:07:02.928Z,6.19
2023-05-08T23:09:31.292Z,6.17
2023-05-08T23:11:59.572Z,6.15
2023-05-08T23:14:27.927Z,6.14
2023-05-08T23:16:56.323Z,6.12
2023-05-08T23:19:24.755Z,6.11
2023-05-08T23:21:53.024Z,6.09
2023-05-08T23:24:21.335Z,6.10
2023-05-08T23:26:49.916Z,6.09
2023-05-08T23:29:18.247Z,6.09
2023-05-08T23:31:46.598Z,6.08
2023-05-08T23:34:14.979Z,6.04
2023-05-08T23:36:43.285Z,6.03
2023-05-08T23:39:11.581Z,6.04
2023-05-08T23:41:39.874Z,6.03
2023-05-08T23:44:08.170Z,6.02
2023-05-08T23:46:36.530Z,6.02
2023-05-08T23:49:05.634Z,5.98
2023-05-08T23:51:34.298Z,5.97
2023-05-08T23:54:03.452Z,5.95
2023-05-08T23:56:31.821Z,5.92
2023-05-08T23:59:00.082Z,5.89
